createdAt,value
2022-09-03T00:21:03.024Z,6
2022-09-03T00:49:42.590Z,7
2022-09-03T01:18:22.566Z,8
2022-09-03T01:47:08.687Z,7
2022-09-03T02:15:50.242Z,7
2022-09-03T02:44:33.357Z,10
2022-09-03T03:13:21.122Z,8
2022-09-03T03:42:03.667Z,9
2022-09-03T04:10:52.213Z,9
2022-09-03T04:39:38.730Z,9
2022-09-03T05:08:12.691Z,10
2022-09-03T05:36:56.857Z,8
2022-09-03T06:05:36.189Z,9
2022-09-03T06:34:20.289Z,9
2022-09-03T07:03:09.383Z,10
2022-09-03T07:31:57.451Z,8
2022-09-03T08:00:23.456Z,10
2022-09-03T08:29:01.270Z,9
2022-09-03T08:57:48.148Z,10
2022-09-03T09:26:20.934Z,10
2022-09-03T09:54:52.107Z,9
2022-09-03T10:23:33.269Z,9
2022-09-03T10:52:05.709Z,9
2022-09-03T11:20:29.378Z,6
2022-09-03T11:48:47.431Z,4
2022-09-03T12:17:15.696Z,3
2022-09-03T13:14:14.652Z,1
2022-09-03T13:42:33.659Z,3
2022-09-03T14:11:20.580Z,1
2022-09-03T14:39:54.008Z,3
2022-09-03T15:08:35.456Z,3
2022-09-03T15:37:11.211Z,1
2022-09-03T16:05:43.634Z,3
2022-09-03T16:34:19.979Z,4
2022-09-03T17:03:03.233Z,4
2022-09-03T17:31:35.644Z,4
2022-09-03T18:00:08.948Z,4
2022-09-03T18:28:50.094Z,4
2022-09-03T18:57:19.339Z,4
2022-09-03T19:25:45.010Z,6
2022-09-03T19:54:12.943Z,6
2022-09-03T20:22:47.519Z,7
2022-09-03T20:51:10.352Z,7
2022-09-03T21:19:28.933Z,8
2022-09-03T21:47:56.708Z,6
2022-09-03T22:16:30.248Z,6
2022-09-03T22:45:06.267Z,6
2022-09-03T23:13:42.475Z,7
2022-09-03T23:42:25.182Z,7
